Flight Track Log - Related Links

Times and Time Zones

All times are in EDT time to prevent confusion due to time zone crossing. See the FIN755 flight status page for this flight to view local times or setup timezone preferences in your user account.

Time Position Orientation Groundspeed Altitude Reporting Facility
EDT Latitude Longitude Course Direction KTS MPH feet Rate Location/Type
Sat 10:18:00 AM 59.9937 24.7656 197° South  Level Estimated
Sat 10:19:00 AM 59.8858 24.7006 197° South  Level Estimated
Sat 10:20:00 AM 59.7778 24.6359 197° South  Level Estimated
Sat 10:21:00 AM 59.6670 24.5700 197° South  Level Estimated
Sat 10:22:00 AM 59.5562 24.5046 197° South  Level Estimated
Sat 10:23:00 AM 59.4454 24.4396 197° South  Level Estimated
Sat 10:24:00 AM 59.3345 24.3750 197° South  Level Estimated
Sat 10:25:00 AM 59.2236 24.3108 196° South  Level Estimated
Sat 10:26:00 AM 59.1126 24.2471 196° South  Level Estimated
Sat 10:27:00 AM 59.0016 24.1837 196° South  Level Estimated
Sat 10:28:00 AM 58.8906 24.1208 196° South  Level Estimated
Sat 10:29:00 AM 58.7796 24.0582 196° South  Level Estimated
Sat 10:30:00 AM 58.6685 23.9961 196° South  Level Estimated
Sat 10:31:00 AM 58.5574 23.9343 196° South  Level Estimated
Sat 10:32:00 AM 58.4463 23.8730 196° South  Level Estimated
Sat 10:33:00 AM 58.3351 23.8120 196° South  Level Estimated
Sat 10:34:00 AM 58.2239 23.7514 196° South  Level Estimated
Sat 10:35:00 AM 58.1127 23.6912 196° South  Level Estimated
Sat 10:36:00 AM 58.0015 23.6314 196° South  Level Estimated
Sat 10:37:00 AM 57.8902 23.5720 196° South  Level Estimated
Sat 10:38:00 AM 57.7789 23.5129 196° South  Level Estimated
Sat 10:39:00 AM 57.6676 23.4541 196° South  Level Estimated
Sat 10:40:00 AM 57.5562 23.3958 196° South  Level Estimated
Sat 10:41:00 AM 57.4448 23.3377 196° South  Level Estimated
Sat 10:42:00 AM 57.3334 23.2801 196° South  Level Estimated
Sat 10:43:00 AM 57.2220 23.2228 196° South  Level Estimated
Sat 10:44:00 AM 57.1105 23.1658 196° South  Level Estimated
Sat 10:45:00 AM 56.9990 23.1092 195° South  Level Estimated
Sat 10:46:00 AM 56.8875 23.0529 195° South  Level Estimated
Sat 10:47:00 AM 56.7760 22.9969 195° South  Level Estimated
Sat 10:48:00 AM 56.6644 22.9413 195° South  Level Estimated
Sat 10:49:00 AM 56.5528 22.8860 195° South  Level Estimated
Sat 10:50:00 AM 56.4412 22.8311 195° South  Level Estimated
Sat 10:51:00 AM 56.3296 22.7764 195° South  Level Estimated
Sat 10:52:00 AM 56.2179 22.7221 195° South  Level Estimated
Sat 10:53:00 AM 56.1063 22.6681 195° South  Level Estimated
Sat 10:54:00 AM 55.9945 22.6144 195° South  Level Estimated
Sat 10:55:00 AM 55.8828 22.5610 195° South  Level Estimated
Sat 10:56:00 AM 55.7711 22.5079 195° South  Level Estimated
Sat 10:57:00 AM 55.6593 22.4551 195° South  Level Estimated
Sat 10:58:00 AM 55.5475 22.4026 195° South  Level Estimated
Sat 10:59:00 AM 55.4357 22.3505 195° South  Level Estimated
Sat 11:00:00 AM 55.3238 22.2986 195° South  Level Estimated
Sat 11:01:00 AM 55.2120 22.2470 195° South  Level Estimated
Sat 11:02:00 AM 55.1001 22.1957 195° South  Level Estimated
Sat 11:03:00 AM 54.9882 22.1446 195° South  Level Estimated
Sat 11:04:00 AM 54.8763 22.0939 195° South  Level Estimated
Sat 11:05:00 AM 54.7643 22.0434 195° South  Level Estimated
Sat 11:06:00 AM 54.6523 21.9933 195° South  Level Estimated
Sat 11:07:00 AM 54.5403 21.9434 194° South  Level Estimated
Sat 11:08:00 AM 54.4283 21.8937 194° South  Level Estimated
Sat 11:09:00 AM 54.3163 21.8444 194° South  Level Estimated
Sat 11:10:00 AM 54.2043 21.7953 194° South  Level Estimated
Sat 11:11:00 AM 54.0922 21.7465 194° South  Level Estimated
Sat 11:12:00 AM 53.9801 21.6979 194° South  Level Estimated
Sat 11:13:00 AM 53.8680 21.6496 194° South  Level Estimated
Sat 11:14:00 AM 53.7559 21.6016 194° South  Level Estimated
Sat 11:15:00 AM 53.6437 21.5538 194° South  Level Estimated
Sat 11:16:00 AM 53.5315 21.5062 194° South  Level Estimated
Sat 11:17:00 AM 53.4193 21.4590 194° South  Level Estimated
Sat 11:18:00 AM 53.3071 21.4119 194° South  Level Estimated
Sat 11:19:00 AM 53.1949 21.3651 194° South  Level Estimated
Sat 11:20:00 AM 53.0827 21.3186 194° South  Level Estimated
Sat 11:21:00 AM 52.9704 21.2723 194° South  Level Estimated
Sat 11:22:00 AM 52.8581 21.2262 194° South  Level Estimated
Sat 11:23:00 AM 52.7458 21.1804 194° South  Level Estimated
Sat 11:24:00 AM 52.6335 21.1348 194° South  Level Estimated
Sat 11:25:00 AM 52.5212 21.0895 194° South  Level Estimated
Sat 11:26:00 AM 52.4117 21.0455 194° South  Level Estimated
Sat 11:27:00 AM 52.3022 21.0017 194° South  Level Estimated
Sat 11:28:00 AM 52.1927 20.9582 194° South  Level Estimated
Sat 11:29:00 AM 52.0831 20.9149 194° South  Level Estimated
Sat 11:30:00 AM 51.9736 20.8717 194° South  Level Estimated
Sat 11:31:00 AM 51.8640 20.8288 194° South  Level Estimated
Sat 11:32:00 AM 51.7544 20.7861 194° South  Level Estimated
Sat 11:33:00 AM 51.6448 20.7437 194° South  Level Estimated
Sat 11:34:00 AM 51.5352 20.7014 193° South  Level Estimated
Sat 11:35:00 AM 51.4256 20.6593 193° South  Level Estimated
Sat 11:36:00 AM 51.3159 20.6174 193° South  Level Estimated
Sat 11:37:00 AM 51.2063 20.5757 193° South  Level Estimated
Sat 11:38:00 AM 51.0966 20.5342 193° South  Level Estimated
Sat 11:39:00 AM 50.9869 20.4930 193° South  Level Estimated
Sat 11:40:00 AM 50.8772 20.4519 193° South  Level Estimated
Sat 11:41:00 AM 50.7675 20.4110 193° South  Level Estimated
Sat 11:42:00 AM 50.6577 20.3703 193° South  Level Estimated
Sat 11:43:00 AM 50.5480 20.3297 193° South  Level Estimated
Sat 11:44:00 AM 50.4382 20.2894 193° South  Level Estimated
Sat 11:45:00 AM 50.3285 20.2493 193° South  Level Estimated
Sat 11:46:00 AM 50.2187 20.2093 193° South  Level Estimated
Sat 11:47:00 AM 50.1089 20.1695 193° South  Level Estimated
Sat 11:48:00 AM 49.9991 20.1299 193° South  Level Estimated
Sat 11:49:00 AM 49.8892 20.0905 193° South  Level Estimated
Sat 11:50:00 AM 49.7794 20.0513 193° South  Level Estimated
Sat 11:51:00 AM 49.6695 20.0122 193° South  Level Estimated
Sat 11:52:00 AM 49.5597 19.9734 193° South  Level Estimated
Sat 11:53:00 AM 49.4498 19.9347 193° South  Level Estimated
Sat 11:54:00 AM 49.3399 19.8961 193° South  Level Estimated
Sat 11:55:00 AM 49.2300 19.8578 193° South  Level Estimated
Sat 11:56:00 AM 49.1200 19.8196 193° South  Level Estimated
Sat 11:57:00 AM 49.0101 19.7815 193° South  Level Estimated
Sat 11:58:00 AM 48.9002 19.7437 193° South  Level Estimated
Sat 11:59:00 AM 48.7902 19.7060 193° South  Level Estimated
Sat 12:00:00 PM 48.6802 19.6685 193° South  Level Estimated
Sat 12:01:00 PM 48.5601 19.6277 193° South  Level Estimated
Sat 12:02:00 PM 48.4399 19.5871 193° South  Level Estimated
Sat 12:03:00 PM 48.3197 19.5466 193° South  Level Estimated
Sat 12:04:00 PM 48.1995 19.5064 193° South  Level Estimated
Sat 12:05:00 PM 48.0793 19.4663 193° South  Level Estimated
Sat 12:06:00 PM 47.9590 19.4265 193° South  Level Estimated
Sat 12:07:00 PM 47.8388 19.3868 192° South  Level Estimated
Sat 12:08:00 PM 47.7185 19.3473 192° South  Level Estimated
Sat 12:09:00 PM 47.5982 19.3080 192° South  Level Estimated
Sat 12:10:00 PM 47.4779 19.2689 192° South  Level Estimated
Sat 12:11:00 PM 47.4369 19.2556 192° South  Level Estimated
Sat 12:12:00 PM 47.4369 19.2556 24° Northeast  Level Estimated
Sat 12:13:00 PM 47.4369 19.2556 24° Northeast  Level Estimated
Sat 12:14:00 PM 47.4369 19.2556 24° Northeast  Level Estimated
Sat 12:15:00 PM 47.4369 19.2556 24° Northeast  Level Estimated
Sat 12:16:00 PM 47.4369 19.2556 24° Northeast  Level Estimated
Sat 12:17:00 PM 47.4369 19.2556 24° Northeast  Level Estimated
Sat 12:18:00 PM 47.4369 19.2556 24° Northeast  Level Estimated

Login

Don't have an account? Register now (free) for customized features, flight alerts, and more!